2020 Antwerp Airport (ANR/EBAW) latest news

Join this forum to discuss the latest news that happened in the world of commercial aviation.

Moderator: Latest news team

Post Reply
Passenger
Posts: 6485
Joined: 06 Dec 2010, 20:54

2020 Antwerp Airport (ANR/EBAW) latest news

Post by Passenger » 20 Jan 2020, 20:20

jan_olieslagers wrote:
20 Jan 2020, 14:20
EBCV has the highest of all, at 1049. Not sure I can "screw" my altimeter that far! Not that it really matters, my aerodrome won't open anyway in this low-cloudy weather.

METAR EBAW 201250Z 16003KT 4000 BR SCT003 05/03 Q1048 TEMPO 6000 NSW=
METAR EBBE 201255Z VRB01KT 4000 BR SCT003 OVC005 05/04 Q1047 YLO AMB TEMPO YLO=
METAR EBBL 201255Z VRB02KT 2000 BR SCT002 BKN003 04/04 Q1048 AMB AMB TEMPO YLO=
METAR EBBR 201250Z VRB01KT 9999 SCT006 04/03 Q1048 NOSIG=
METAR EBCI 201250Z 04005KT 4500 BR FEW002 BKN004 03/02 Q1047 BECMG 6000 BKN005=
METAR EBCV 201255Z AUTO VRB02KT 6000 OVC004/// 04/03 Q1049 YLO=
METAR EBFN 201255Z 21003KT 9999 BKN130 06/05 Q1048 BLU BLU=
SPECI EBFS 201314Z 07005KT 6000 FEW006 BKN009 03/02 Q1046 GRN GRN=
METAR EBLG 201250Z 34006KT 310V030 4700 BR FEW005 BKN007 04/03 Q1047 TEMPO 3000 BKN005=
METAR EBOS 201250Z 20005KT 7000 NSC 06/04 Q1048 NOSIG=
METAR EBSP 201250Z AUTO 09005KT 050V140 9999 // BKN015/// 03/M01 Q1045=
METAR EBSH 201250Z AUTO 05008KT 020V080 9999 // SCT016/// 01/M02 Q1044=
METAR ELLX 201250Z 04012KT 9999 FEW018 04/M01 Q1044 NOSIG=
Meanwhile, fog is building up in/near Antwerp.
WP141 (Air Antwerp F-50) and TB2062 (TUI ERJ-190) are above the aerodrome, at FL070 and FL080.

Passenger
Posts: 6485
Joined: 06 Dec 2010, 20:54

Re: 2020 Antwerp Airport (ANR/EBAW) latest news

Post by Passenger » 20 Jan 2020, 20:45

Passenger wrote:
20 Jan 2020, 20:20
Meanwhile, fog is building up in/near Antwerp.
WP141 (Air Antwerp F-50) and TB2062 (TUI ERJ-190) are above the aerodrome, at FL070 and FL080.
It's Brussels, for both.
I wonder if Air Antwerp and TUI will share the passengers' coach transfer from BRU to ANR.

TLspotting
Posts: 1875
Joined: 19 Mar 2017, 10:22
Location: Uccle/Ukkel,BE
Contact:

Re: 2020 Antwerp Airport (ANR/EBAW) latest news

Post by TLspotting » 20 Jan 2020, 21:05

Passenger wrote:
20 Jan 2020, 20:45
Passenger wrote:
20 Jan 2020, 20:20
Meanwhile, fog is building up in/near Antwerp.
WP141 (Air Antwerp F-50) and TB2062 (TUI ERJ-190) are above the aerodrome, at FL070 and FL080.
It's Brussels, for both.
I wonder if Air Antwerp and TUI will share the passengers' coach transfer from BRU to ANR.
If no solution has been found, there's still a public company named SNCB/NMBS, from Zaventem right to Antwerp Central! :lol:
I'm Thibault Lapers, spotter in Belgium for now 3 years, but not yet across the world and a huuuuuge aviation geek ! Join me on Facebook & Twitter @TLspotting

Passenger
Posts: 6485
Joined: 06 Dec 2010, 20:54

Re: 2020 Antwerp Airport (ANR/EBAW) latest news

Post by Passenger » 20 Jan 2020, 21:53

TLspotting wrote:
20 Jan 2020, 21:05
Passenger wrote:
20 Jan 2020, 20:45
Passenger wrote:
20 Jan 2020, 20:20
Meanwhile, fog is building up in/near Antwerp.
WP141 (Air Antwerp F-50) and TB2062 (TUI ERJ-190) are above the aerodrome, at FL070 and FL080.
It's Brussels, for both.
I wonder if Air Antwerp and TUI will share the passengers' coach transfer from BRU to ANR.
If no solution has been found, there's still a public company named SNCB/NMBS, from Zaventem right to Antwerp Central! :lol:
When your car is parked at Antwerp Airport, B-Rail Antwerpen-Centraal (or better: B-Rail Antwerpen-Berchem) is fine indeed, but only when there are enough taxis to bring you to the airport.

DIBO
Posts: 556
Joined: 28 Mar 2009, 14:54

Re: 2020 Antwerp Airport (ANR/EBAW) latest news

Post by DIBO » 21 Jan 2020, 20:45

Passenger wrote:
20 Jan 2020, 20:20
Meanwhile, fog is building up in/near Antwerp.
Same story today, WP141 (Air Antwerp F-50) on finals for EBBR. And TB1262 (TUI ERJ-190) from Murcia will probably have to do the same in half an hour.

TLspotting
Posts: 1875
Joined: 19 Mar 2017, 10:22
Location: Uccle/Ukkel,BE
Contact:

Re: 2020 Antwerp Airport (ANR/EBAW) latest news

Post by TLspotting » 04 Feb 2020, 19:39

Impressive growth continues in January at Antwerp Airport (+28.8%)

https://www.aviation24.be/airports/antw ... port-28-8/
I'm Thibault Lapers, spotter in Belgium for now 3 years, but not yet across the world and a huuuuuge aviation geek ! Join me on Facebook & Twitter @TLspotting

Post Reply